sensor_id;sensor_type;location;lat;lon;timestamp;P1;durP1;ratioP1;P2;durP2;ratioP2
26864;SDS011;40618;51.166;10.322;2022-12-07T00:01:14;23.63;;;10.95;;
26864;SDS011;40618;51.166;10.322;2022-12-07T00:03:47;16.83;;;8.32;;
26864;SDS011;40618;51.166;10.322;2022-12-07T00:06:15;29.85;;;14.82;;
26864;SDS011;40618;51.166;10.322;2022-12-07T00:08:43;12.32;;;7.15;;
26864;SDS011;40618;51.166;10.322;2022-12-07T00:11:10;12.77;;;7.13;;
26864;SDS011;40618;51.166;10.322;2022-12-07T00:13:42;10.30;;;6.43;;
26864;SDS011;40618;51.166;10.322;2022-12-07T00:16:12;10.93;;;6.55;;
26864;SDS011;40618;51.166;10.322;2022-12-07T00:18:42;9.73;;;5.78;;
26864;SDS011;40618;51.166;10.322;2022-12-07T00:21:10;15.32;;;7.53;;
26864;SDS011;40618;51.166;10.322;2022-12-07T00:23:43;11.40;;;7.13;;
26864;SDS011;40618;51.166;10.322;2022-12-07T00:26:11;10.60;;;6.90;;
26864;SDS011;40618;51.166;10.322;2022-12-07T00:28:53;10.57;;;6.15;;
26864;SDS011;40618;51.166;10.322;2022-12-07T00:31:23;10.35;;;6.47;;
26864;SDS011;40618;51.166;10.322;2022-12-07T00:33:52;14.27;;;7.75;;
26864;SDS011;40618;51.166;10.322;2022-12-07T00:36:19;17.05;;;7.85;;
26864;SDS011;40618;51.166;10.322;2022-12-07T00:38:47;14.55;;;8.63;;
26864;SDS011;40618;51.166;10.322;2022-12-07T00:41:13;9.00;;;6.25;;
26864;SDS011;40618;51.166;10.322;2022-12-07T00:43:48;9.15;;;5.90;;
26864;SDS011;40618;51.166;10.322;2022-12-07T00:46:15;10.45;;;5.63;;
26864;SDS011;40618;51.166;10.322;2022-12-07T00:48:42;18.00;;;7.43;;
26864;SDS011;40618;51.166;10.322;2022-12-07T00:51:09;10.48;;;5.80;;
26864;SDS011;40618;51.166;10.322;2022-12-07T00:53:37;14.50;;;6.53;;
26864;SDS011;40618;51.166;10.322;2022-12-07T00:56:07;11.18;;;6.28;;
26864;SDS011;40618;51.166;10.322;2022-12-07T00:58:35;18.35;;;8.50;;
26864;SDS011;40618;51.166;10.322;2022-12-07T01:01:01;13.25;;;8.07;;
26864;SDS011;40618;51.166;10.322;2022-12-07T01:03:28;10.20;;;5.90;;
26864;SDS011;40618;51.166;10.322;2022-12-07T01:05:55;12.48;;;6.70;;
26864;SDS011;40618;51.166;10.322;2022-12-07T01:08:22;13.48;;;8.10;;
26864;SDS011;40618;51.166;10.322;2022-12-07T01:10:49;13.98;;;8.07;;
26864;SDS011;40618;51.166;10.322;2022-12-07T01:13:29;10.55;;;6.93;;
26864;SDS011;40618;51.166;10.322;2022-12-07T01:15:57;14.35;;;7.35;;
26864;SDS011;40618;51.166;10.322;2022-12-07T01:18:25;12.88;;;6.97;;
26864;SDS011;40618;51.166;10.322;2022-12-07T01:23:29;12.48;;;6.97;;
26864;SDS011;40618;51.166;10.322;2022-12-07T01:25:59;11.07;;;7.07;;
26864;SDS011;40618;51.166;10.322;2022-12-07T01:28:29;10.02;;;5.80;;
26864;SDS011;40618;51.166;10.322;2022-12-07T01:30:58;15.25;;;7.45;;
26864;SDS011;40618;51.166;10.322;2022-12-07T01:33:31;18.00;;;8.57;;
26864;SDS011;40618;51.166;10.322;2022-12-07T01:36:01;12.85;;;7.30;;
26864;SDS011;40618;51.166;10.322;2022-12-07T01:38:29;16.15;;;7.57;;
26864;SDS011;40618;51.166;10.322;2022-12-07T01:40:56;11.82;;;7.05;;
26864;SDS011;40618;51.166;10.322;2022-12-07T01:43:22;15.95;;;7.88;;
26864;SDS011;40618;51.166;10.322;2022-12-07T01:45:51;11.50;;;6.22;;
26864;SDS011;40618;51.166;10.322;2022-12-07T01:48:18;9.05;;;6.20;;
26864;SDS011;40618;51.166;10.322;2022-12-07T01:50:48;12.93;;;6.65;;
26864;SDS011;40618;51.166;10.322;2022-12-07T01:53:18;12.93;;;7.43;;
26864;SDS011;40618;51.166;10.322;2022-12-07T01:55:45;9.35;;;6.25;;
26864;SDS011;40618;51.166;10.322;2022-12-07T01:58:15;14.18;;;7.45;;
26864;SDS011;40618;51.166;10.322;2022-12-07T02:00:41;17.52;;;9.27;;
26864;SDS011;40618;51.166;10.322;2022-12-07T02:03:09;13.73;;;7.82;;
26864;SDS011;40618;51.166;10.322;2022-12-07T02:05:44;13.13;;;7.68;;
26864;SDS011;40618;51.166;10.322;2022-12-07T02:08:13;13.48;;;8.25;;
26864;SDS011;40618;51.166;10.322;2022-12-07T02:10:39;14.77;;;8.27;;
26864;SDS011;40618;51.166;10.322;2022-12-07T02:24:13;18.45;;;9.63;;
26864;SDS011;40618;51.166;10.322;2022-12-07T02:29:47;11.55;;;7.75;;
26864;SDS011;40618;51.166;10.322;2022-12-07T02:40:48;11.63;;;7.75;;
26864;SDS011;40618;51.166;10.322;2022-12-07T02:43:27;11.48;;;7.40;;
26864;SDS011;40618;51.166;10.322;2022-12-07T02:46:04;13.50;;;8.43;;
26864;SDS011;40618;51.166;10.322;2022-12-07T02:48:37;13.48;;;8.07;;
26864;SDS011;40618;51.166;10.322;2022-12-07T02:51:06;12.20;;;7.70;;
26864;SDS011;40618;51.166;10.322;2022-12-07T03:07:21;12.50;;;8.23;;
26864;SDS011;40618;51.166;10.322;2022-12-07T03:13:34;15.95;;;8.98;;
26864;SDS011;40618;51.166;10.322;2022-12-07T03:19:05;13.32;;;8.70;;
26864;SDS011;40618;51.166;10.322;2022-12-07T03:21:42;16.92;;;9.05;;
26864;SDS011;40618;51.166;10.322;2022-12-07T03:24:17;13.65;;;8.50;;
26864;SDS011;40618;51.166;10.322;2022-12-07T03:26:49;15.52;;;8.45;;
26864;SDS011;40618;51.166;10.322;2022-12-07T03:29:40;14.73;;;8.48;;
26864;SDS011;40618;51.166;10.322;2022-12-07T03:35:16;13.63;;;8.30;;
26864;SDS011;40618;51.166;10.322;2022-12-07T03:40:25;13.63;;;8.55;;
26864;SDS011;40618;51.166;10.322;2022-12-07T03:42:58;12.27;;;8.60;;
26864;SDS011;40618;51.166;10.322;2022-12-07T03:46:17;14.23;;;7.82;;
26864;SDS011;40618;51.166;10.322;2022-12-07T03:54:58;11.23;;;7.38;;
26864;SDS011;40618;51.166;10.322;2022-12-07T03:57:35;12.27;;;7.57;;
26864;SDS011;40618;51.166;10.322;2022-12-07T04:00:04;10.65;;;6.35;;
26864;SDS011;40618;51.166;10.322;2022-12-07T04:02:32;12.30;;;6.63;;
26864;SDS011;40618;51.166;10.322;2022-12-07T04:05:00;10.70;;;6.35;;
26864;SDS011;40618;51.166;10.322;2022-12-07T04:07:26;9.15;;;5.85;;
26864;SDS011;40618;51.166;10.322;2022-12-07T04:09:52;8.80;;;6.32;;
26864;SDS011;40618;51.166;10.322;2022-12-07T04:12:19;9.35;;;5.85;;
26864;SDS011;40618;51.166;10.322;2022-12-07T04:14:46;9.07;;;6.25;;
26864;SDS011;40618;51.166;10.322;2022-12-07T04:17:12;11.40;;;7.15;;
26864;SDS011;40618;51.166;10.322;2022-12-07T04:19:37;11.50;;;6.93;;
26864;SDS011;40618;51.166;10.322;2022-12-07T04:22:04;10.32;;;6.70;;
26864;SDS011;40618;51.166;10.322;2022-12-07T04:24:30;10.95;;;7.07;;
26864;SDS011;40618;51.166;10.322;2022-12-07T04:26:56;10.77;;;6.45;;
26864;SDS011;40618;51.166;10.322;2022-12-07T04:29:22;10.73;;;7.45;;
26864;SDS011;40618;51.166;10.322;2022-12-07T04:31:48;12.18;;;7.43;;
26864;SDS011;40618;51.166;10.322;2022-12-07T04:34:14;9.07;;;6.22;;
26864;SDS011;40618;51.166;10.322;2022-12-07T04:36:40;7.97;;;5.85;;
26864;SDS011;40618;51.166;10.322;2022-12-07T04:39:08;8.45;;;5.88;;
26864;SDS011;40618;51.166;10.322;2022-12-07T04:41:44;8.57;;;5.47;;
26864;SDS011;40618;51.166;10.322;2022-12-07T04:44:10;8.98;;;6.13;;
26864;SDS011;40618;51.166;10.322;2022-12-07T04:46:39;9.75;;;6.18;;
26864;SDS011;40618;51.166;10.322;2022-12-07T04:49:05;8.38;;;5.43;;
26864;SDS011;40618;51.166;10.322;2022-12-07T04:51:31;9.50;;;6.32;;
26864;SDS011;40618;51.166;10.322;2022-12-07T04:53:57;8.32;;;5.80;;
26864;SDS011;40618;51.166;10.322;2022-12-07T04:56:23;8.30;;;5.53;;
26864;SDS011;40618;51.166;10.322;2022-12-07T04:58:50;7.03;;;5.10;;
26864;SDS011;40618;51.166;10.322;2022-12-07T05:01:19;9.75;;;6.00;;
26864;SDS011;40618;51.166;10.322;2022-12-07T05:03:45;7.70;;;5.35;;
26864;SDS011;40618;51.166;10.322;2022-12-07T05:06:12;6.03;;;4.40;;
26864;SDS011;40618;51.166;10.322;2022-12-07T05:08:37;7.13;;;4.70;;
26864;SDS011;40618;51.166;10.322;2022-12-07T05:11:04;6.05;;;4.35;;
26864;SDS011;40618;51.166;10.322;2022-12-07T05:13:31;11.23;;;5.00;;
26864;SDS011;40618;51.166;10.322;2022-12-07T05:15:58;5.50;;;4.30;;
26864;SDS011;40618;51.166;10.322;2022-12-07T05:18:24;6.95;;;4.32;;
26864;SDS011;40618;51.166;10.322;2022-12-07T05:20:49;6.18;;;4.38;;
26864;SDS011;40618;51.166;10.322;2022-12-07T05:23:16;7.60;;;4.55;;
26864;SDS011;40618;51.166;10.322;2022-12-07T05:25:42;6.00;;;4.30;;
26864;SDS011;40618;51.166;10.322;2022-12-07T05:28:08;6.93;;;4.43;;
26864;SDS011;40618;51.166;10.322;2022-12-07T05:30:34;7.07;;;4.65;;
26864;SDS011;40618;51.166;10.322;2022-12-07T05:33:00;7.15;;;4.85;;
26864;SDS011;40618;51.166;10.322;2022-12-07T05:35:26;5.13;;;4.05;;
26864;SDS011;40618;51.166;10.322;2022-12-07T05:37:51;7.60;;;4.70;;
26864;SDS011;40618;51.166;10.322;2022-12-07T05:40:17;6.57;;;4.82;;
26864;SDS011;40618;51.166;10.322;2022-12-07T05:42:44;6.90;;;5.10;;
26864;SDS011;40618;51.166;10.322;2022-12-07T05:45:10;6.97;;;5.07;;
26864;SDS011;40618;51.166;10.322;2022-12-07T05:47:36;7.13;;;4.85;;
26864;SDS011;40618;51.166;10.322;2022-12-07T05:50:02;7.18;;;4.90;;
26864;SDS011;40618;51.166;10.322;2022-12-07T05:52:30;7.97;;;5.15;;
26864;SDS011;40618;51.166;10.322;2022-12-07T05:54:55;8.68;;;5.55;;
26864;SDS011;40618;51.166;10.322;2022-12-07T05:57:21;8.40;;;5.00;;
26864;SDS011;40618;51.166;10.322;2022-12-07T05:59:47;8.52;;;5.85;;
26864;SDS011;40618;51.166;10.322;2022-12-07T06:02:13;9.15;;;5.47;;
26864;SDS011;40618;51.166;10.322;2022-12-07T06:04:41;9.50;;;6.10;;
26864;SDS011;40618;51.166;10.322;2022-12-07T06:07:11;7.83;;;5.97;;
26864;SDS011;40618;51.166;10.322;2022-12-07T06:09:39;11.18;;;6.18;;
26864;SDS011;40618;51.166;10.322;2022-12-07T06:12:06;14.63;;;8.45;;
26864;SDS011;40618;51.166;10.322;2022-12-07T06:17:22;20.63;;;9.68;;
26864;SDS011;40618;51.166;10.322;2022-12-07T06:19:48;11.98;;;7.50;;
26864;SDS011;40618;51.166;10.322;2022-12-07T06:22:13;11.90;;;7.13;;
26864;SDS011;40618;51.166;10.322;2022-12-07T06:24:41;11.20;;;7.43;;
26864;SDS011;40618;51.166;10.322;2022-12-07T06:27:06;10.68;;;7.10;;
26864;SDS011;40618;51.166;10.322;2022-12-07T06:29:32;15.30;;;7.40;;
26864;SDS011;40618;51.166;10.322;2022-12-07T06:31:58;11.32;;;7.63;;
26864;SDS011;40618;51.166;10.322;2022-12-07T06:34:24;11.73;;;7.20;;
26864;SDS011;40618;51.166;10.322;2022-12-07T06:36:51;15.95;;;9.75;;
26864;SDS011;40618;51.166;10.322;2022-12-07T06:39:20;13.07;;;8.32;;
26864;SDS011;40618;51.166;10.322;2022-12-07T06:41:49;13.18;;;7.93;;
26864;SDS011;40618;51.166;10.322;2022-12-07T06:44:16;14.98;;;8.52;;
26864;SDS011;40618;51.166;10.322;2022-12-07T06:46:43;13.77;;;7.30;;
26864;SDS011;40618;51.166;10.322;2022-12-07T06:49:09;12.05;;;7.55;;
26864;SDS011;40618;51.166;10.322;2022-12-07T06:51:34;14.32;;;7.78;;
26864;SDS011;40618;51.166;10.322;2022-12-07T06:54:02;11.38;;;6.97;;
26864;SDS011;40618;51.166;10.322;2022-12-07T06:56:29;11.48;;;7.43;;
26864;SDS011;40618;51.166;10.322;2022-12-07T06:58:54;11.57;;;7.72;;
26864;SDS011;40618;51.166;10.322;2022-12-07T07:01:20;12.60;;;7.25;;
26864;SDS011;40618;51.166;10.322;2022-12-07T07:03:46;12.75;;;7.40;;
26864;SDS011;40618;51.166;10.322;2022-12-07T07:06:12;10.07;;;6.72;;
26864;SDS011;40618;51.166;10.322;2022-12-07T07:08:39;10.30;;;6.85;;
26864;SDS011;40618;51.166;10.322;2022-12-07T07:11:05;11.10;;;7.40;;
26864;SDS011;40618;51.166;10.322;2022-12-07T07:13:33;12.00;;;7.85;;
26864;SDS011;40618;51.166;10.322;2022-12-07T07:15:59;13.27;;;7.55;;
26864;SDS011;40618;51.166;10.322;2022-12-07T07:18:25;15.75;;;8.60;;
26864;SDS011;40618;51.166;10.322;2022-12-07T07:20:52;13.63;;;7.88;;
26864;SDS011;40618;51.166;10.322;2022-12-07T07:23:18;12.60;;;7.38;;
26864;SDS011;40618;51.166;10.322;2022-12-07T07:25:45;11.38;;;7.40;;
26864;SDS011;40618;51.166;10.322;2022-12-07T07:28:11;11.88;;;7.63;;
26864;SDS011;40618;51.166;10.322;2022-12-07T07:30:37;14.85;;;7.78;;
26864;SDS011;40618;51.166;10.322;2022-12-07T07:33:03;13.75;;;7.50;;
26864;SDS011;40618;51.166;10.322;2022-12-07T07:35:31;37.00;;;15.75;;
26864;SDS011;40618;51.166;10.322;2022-12-07T07:37:58;22.70;;;9.88;;
26864;SDS011;40618;51.166;10.322;2022-12-07T07:40:25;13.48;;;7.55;;
26864;SDS011;40618;51.166;10.322;2022-12-07T07:42:52;13.90;;;6.90;;
26864;SDS011;40618;51.166;10.322;2022-12-07T07:45:19;14.57;;;6.88;;
26864;SDS011;40618;51.166;10.322;2022-12-07T07:47:46;11.85;;;6.43;;
26864;SDS011;40618;51.166;10.322;2022-12-07T07:50:12;13.02;;;6.70;;
26864;SDS011;40618;51.166;10.322;2022-12-07T07:52:38;17.35;;;7.28;;
26864;SDS011;40618;51.166;10.322;2022-12-07T07:55:05;12.00;;;6.28;;
26864;SDS011;40618;51.166;10.322;2022-12-07T07:57:33;19.98;;;6.32;;
26864;SDS011;40618;51.166;10.322;2022-12-07T08:00:03;17.00;;;8.50;;
26864;SDS011;40618;51.166;10.322;2022-12-07T08:02:34;17.60;;;7.63;;
26864;SDS011;40618;51.166;10.322;2022-12-07T08:05:00;15.27;;;7.03;;
26864;SDS011;40618;51.166;10.322;2022-12-07T08:07:26;13.63;;;6.40;;
26864;SDS011;40618;51.166;10.322;2022-12-07T08:09:53;10.63;;;6.03;;
26864;SDS011;40618;51.166;10.322;2022-12-07T08:12:18;14.77;;;6.72;;
26864;SDS011;40618;51.166;10.322;2022-12-07T08:14:44;11.82;;;6.57;;
26864;SDS011;40618;51.166;10.322;2022-12-07T08:17:10;17.70;;;7.00;;
26864;SDS011;40618;51.166;10.322;2022-12-07T08:19:35;13.50;;;6.32;;
26864;SDS011;40618;51.166;10.322;2022-12-07T08:22:01;14.90;;;7.07;;
26864;SDS011;40618;51.166;10.322;2022-12-07T08:24:27;11.65;;;6.07;;
26864;SDS011;40618;51.166;10.322;2022-12-07T08:26:53;10.65;;;5.93;;
26864;SDS011;40618;51.166;10.322;2022-12-07T08:29:18;10.93;;;5.53;;
26864;SDS011;40618;51.166;10.322;2022-12-07T08:31:44;11.20;;;5.47;;
26864;SDS011;40618;51.166;10.322;2022-12-07T08:34:11;13.40;;;5.78;;
26864;SDS011;40618;51.166;10.322;2022-12-07T08:36:38;12.90;;;5.93;;
26864;SDS011;40618;51.166;10.322;2022-12-07T08:39:03;16.27;;;7.35;;
26864;SDS011;40618;51.166;10.322;2022-12-07T08:41:29;11.98;;;6.20;;
26864;SDS011;40618;51.166;10.322;2022-12-07T08:43:55;10.70;;;5.65;;
26864;SDS011;40618;51.166;10.322;2022-12-07T08:46:22;15.57;;;5.78;;
26864;SDS011;40618;51.166;10.322;2022-12-07T08:49:31;17.83;;;6.97;;
26864;SDS011;40618;51.166;10.322;2022-12-07T08:52:04;10.30;;;5.05;;
26864;SDS011;40618;51.166;10.322;2022-12-07T08:54:30;14.77;;;6.25;;
26864;SDS011;40618;51.166;10.322;2022-12-07T08:57:02;13.93;;;6.25;;
26864;SDS011;40618;51.166;10.322;2022-12-07T08:59:29;13.23;;;5.63;;
26864;SDS011;40618;51.166;10.322;2022-12-07T09:01:55;12.73;;;5.15;;
26864;SDS011;40618;51.166;10.322;2022-12-07T09:04:21;12.05;;;5.43;;
26864;SDS011;40618;51.166;10.322;2022-12-07T09:06:47;13.07;;;6.07;;
26864;SDS011;40618;51.166;10.322;2022-12-07T09:09:13;12.07;;;5.60;;
26864;SDS011;40618;51.166;10.322;2022-12-07T09:11:39;12.20;;;5.10;;
26864;SDS011;40618;51.166;10.322;2022-12-07T09:14:05;13.15;;;6.18;;
26864;SDS011;40618;51.166;10.322;2022-12-07T09:16:31;13.73;;;6.18;;
26864;SDS011;40618;51.166;10.322;2022-12-07T09:18:56;12.65;;;5.18;;
26864;SDS011;40618;51.166;10.322;2022-12-07T09:21:22;16.42;;;5.70;;
26864;SDS011;40618;51.166;10.322;2022-12-07T09:23:47;9.40;;;4.65;;
26864;SDS011;40618;51.166;10.322;2022-12-07T09:26:13;8.27;;;5.07;;
26864;SDS011;40618;51.166;10.322;2022-12-07T09:28:39;18.23;;;7.60;;
26864;SDS011;40618;51.166;10.322;2022-12-07T09:31:05;13.27;;;6.05;;
26864;SDS011;40618;51.166;10.322;2022-12-07T09:33:31;11.80;;;5.15;;
26864;SDS011;40618;51.166;10.322;2022-12-07T09:35:57;8.30;;;3.78;;
26864;SDS011;40618;51.166;10.322;2022-12-07T09:38:23;6.93;;;3.75;;
26864;SDS011;40618;51.166;10.322;2022-12-07T09:40:51;10.63;;;4.75;;
26864;SDS011;40618;51.166;10.322;2022-12-07T09:43:20;9.82;;;4.00;;
26864;SDS011;40618;51.166;10.322;2022-12-07T09:45:52;7.75;;;3.90;;
26864;SDS011;40618;51.166;10.322;2022-12-07T09:48:21;11.80;;;4.38;;
26864;SDS011;40618;51.166;10.322;2022-12-07T09:50:54;10.98;;;4.63;;
26864;SDS011;40618;51.166;10.322;2022-12-07T09:53:29;9.10;;;4.10;;
26864;SDS011;40618;51.166;10.322;2022-12-07T09:55:59;10.40;;;4.32;;
26864;SDS011;40618;51.166;10.322;2022-12-07T09:58:27;6.50;;;3.90;;
26864;SDS011;40618;51.166;10.322;2022-12-07T10:01:00;10.48;;;5.00;;
26864;SDS011;40618;51.166;10.322;2022-12-07T10:03:40;11.70;;;4.30;;
26864;SDS011;40618;51.166;10.322;2022-12-07T10:06:18;14.95;;;5.97;;
26864;SDS011;40618;51.166;10.322;2022-12-07T10:08:44;13.95;;;5.50;;
26864;SDS011;40618;51.166;10.322;2022-12-07T10:11:10;8.15;;;3.83;;
26864;SDS011;40618;51.166;10.322;2022-12-07T10:22:04;7.05;;;3.75;;
26864;SDS011;40618;51.166;10.322;2022-12-07T10:24:40;5.60;;;3.03;;
26864;SDS011;40618;51.166;10.322;2022-12-07T10:27:30;6.90;;;3.25;;
26864;SDS011;40618;51.166;10.322;2022-12-07T10:29:57;8.73;;;3.28;;
26864;SDS011;40618;51.166;10.322;2022-12-07T10:35:18;7.03;;;2.80;;
26864;SDS011;40618;51.166;10.322;2022-12-07T10:37:49;4.30;;;2.65;;
26864;SDS011;40618;51.166;10.322;2022-12-07T10:43:05;6.95;;;2.97;;
26864;SDS011;40618;51.166;10.322;2022-12-07T10:46:25;9.30;;;2.77;;
26864;SDS011;40618;51.166;10.322;2022-12-07T10:57:21;3.88;;;2.40;;
26864;SDS011;40618;51.166;10.322;2022-12-07T11:00:10;4.50;;;2.33;;
26864;SDS011;40618;51.166;10.322;2022-12-07T11:08:44;6.38;;;2.47;;
26864;SDS011;40618;51.166;10.322;2022-12-07T11:11:52;4.75;;;2.08;;
26864;SDS011;40618;51.166;10.322;2022-12-07T11:23:26;8.32;;;2.83;;
26864;SDS011;40618;51.166;10.322;2022-12-07T11:38:14;6.82;;;2.83;;
26864;SDS011;40618;51.166;10.322;2022-12-07T11:41:02;5.00;;;2.50;;
26864;SDS011;40618;51.166;10.322;2022-12-07T11:47:22;5.35;;;2.47;;
26864;SDS011;40618;51.166;10.322;2022-12-07T12:03:41;7.88;;;4.85;;
26864;SDS011;40618;51.166;10.322;2022-12-07T12:06:37;7.72;;;3.70;;
26864;SDS011;40618;51.166;10.322;2022-12-07T12:20:41;6.43;;;2.75;;
26864;SDS011;40618;51.166;10.322;2022-12-07T12:25:55;2.88;;;1.15;;
26864;SDS011;40618;51.166;10.322;2022-12-07T12:33:31;7.20;;;2.10;;
26864;SDS011;40618;51.166;10.322;2022-12-07T12:38:49;5.30;;;1.88;;
26864;SDS011;40618;51.166;10.322;2022-12-07T12:46:53;5.10;;;1.92;;
26864;SDS011;40618;51.166;10.322;2022-12-07T12:54:35;3.50;;;2.20;;
26864;SDS011;40618;51.166;10.322;2022-12-07T12:57:09;6.88;;;1.73;;
26864;SDS011;40618;51.166;10.322;2022-12-07T13:29:18;2.10;;;1.08;;
26864;SDS011;40618;51.166;10.322;2022-12-07T13:31:52;3.75;;;1.33;;
26864;SDS011;40618;51.166;10.322;2022-12-07T13:34:54;2.38;;;1.10;;
26864;SDS011;40618;51.166;10.322;2022-12-07T13:39:56;5.47;;;1.70;;
26864;SDS011;40618;51.166;10.322;2022-12-07T13:42:28;5.00;;;1.25;;
26864;SDS011;40618;51.166;10.322;2022-12-07T13:44:58;2.08;;;1.30;;
26864;SDS011;40618;51.166;10.322;2022-12-07T13:47:44;5.75;;;1.75;;
26864;SDS011;40618;51.166;10.322;2022-12-07T13:50:35;4.15;;;1.75;;
26864;SDS011;40618;51.166;10.322;2022-12-07T13:53:01;5.13;;;1.48;;
26864;SDS011;40618;51.166;10.322;2022-12-07T13:55:37;6.32;;;1.80;;
26864;SDS011;40618;51.166;10.322;2022-12-07T13:58:11;3.72;;;1.25;;
26864;SDS011;40618;51.166;10.322;2022-12-07T14:00:37;3.65;;;1.40;;
26864;SDS011;40618;51.166;10.322;2022-12-07T14:05:40;2.65;;;1.48;;
26864;SDS011;40618;51.166;10.322;2022-12-07T14:10:38;6.43;;;1.30;;
26864;SDS011;40618;51.166;10.322;2022-12-07T14:16:01;5.03;;;1.45;;
26864;SDS011;40618;51.166;10.322;2022-12-07T14:21:03;9.77;;;1.95;;
26864;SDS011;40618;51.166;10.322;2022-12-07T14:23:35;5.95;;;1.27;;
26864;SDS011;40618;51.166;10.322;2022-12-07T14:28:41;5.95;;;2.58;;
26864;SDS011;40618;51.166;10.322;2022-12-07T14:31:18;3.10;;;1.30;;
26864;SDS011;40618;51.166;10.322;2022-12-07T14:33:49;1.35;;;0.80;;
26864;SDS011;40618;51.166;10.322;2022-12-07T14:36:15;4.53;;;1.70;;
26864;SDS011;40618;51.166;10.322;2022-12-07T14:38:41;4.00;;;1.00;;
26864;SDS011;40618;51.166;10.322;2022-12-07T14:41:10;4.47;;;1.00;;
26864;SDS011;40618;51.166;10.322;2022-12-07T14:44:02;2.85;;;1.35;;
26864;SDS011;40618;51.166;10.322;2022-12-07T14:46:33;2.47;;;1.02;;
26864;SDS011;40618;51.166;10.322;2022-12-07T14:48:58;1.75;;;1.10;;
26864;SDS011;40618;51.166;10.322;2022-12-07T14:51:24;4.22;;;1.33;;
26864;SDS011;40618;51.166;10.322;2022-12-07T14:53:50;3.80;;;1.40;;
26864;SDS011;40618;51.166;10.322;2022-12-07T14:56:17;2.70;;;1.25;;
26864;SDS011;40618;51.166;10.322;2022-12-07T14:58:42;4.57;;;1.17;;
26864;SDS011;40618;51.166;10.322;2022-12-07T15:01:08;6.43;;;1.30;;
26864;SDS011;40618;51.166;10.322;2022-12-07T15:03:34;1.45;;;1.10;;
26864;SDS011;40618;51.166;10.322;2022-12-07T15:06:00;5.22;;;1.60;;
26864;SDS011;40618;51.166;10.322;2022-12-07T15:08:26;4.28;;;1.48;;
26864;SDS011;40618;51.166;10.322;2022-12-07T15:10:52;4.95;;;1.38;;
26864;SDS011;40618;51.166;10.322;2022-12-07T15:13:17;2.17;;;1.02;;
26864;SDS011;40618;51.166;10.322;2022-12-07T15:16:02;1.38;;;1.08;;
26864;SDS011;40618;51.166;10.322;2022-12-07T15:18:28;4.15;;;1.10;;
26864;SDS011;40618;51.166;10.322;2022-12-07T15:20:53;3.95;;;1.13;;
26864;SDS011;40618;51.166;10.322;2022-12-07T15:23:19;4.53;;;1.20;;
26864;SDS011;40618;51.166;10.322;2022-12-07T15:25:47;6.35;;;1.80;;
26864;SDS011;40618;51.166;10.322;2022-12-07T15:28:14;8.85;;;1.67;;
26864;SDS011;40618;51.166;10.322;2022-12-07T15:30:41;3.58;;;1.40;;
26864;SDS011;40618;51.166;10.322;2022-12-07T15:33:08;5.65;;;1.52;;
26864;SDS011;40618;51.166;10.322;2022-12-07T15:35:38;5.22;;;1.98;;
26864;SDS011;40618;51.166;10.322;2022-12-07T15:38:05;3.03;;;1.58;;
26864;SDS011;40618;51.166;10.322;2022-12-07T15:40:31;3.95;;;1.30;;
26864;SDS011;40618;51.166;10.322;2022-12-07T15:42:57;4.15;;;1.23;;
26864;SDS011;40618;51.166;10.322;2022-12-07T15:45:22;2.63;;;1.50;;
26864;SDS011;40618;51.166;10.322;2022-12-07T15:47:48;4.45;;;1.95;;
26864;SDS011;40618;51.166;10.322;2022-12-07T15:50:14;4.90;;;2.35;;
26864;SDS011;40618;51.166;10.322;2022-12-07T15:52:42;4.95;;;2.10;;
26864;SDS011;40618;51.166;10.322;2022-12-07T15:55:11;7.88;;;2.65;;
26864;SDS011;40618;51.166;10.322;2022-12-07T15:57:37;5.28;;;2.40;;
26864;SDS011;40618;51.166;10.322;2022-12-07T16:00:04;4.40;;;1.95;;
26864;SDS011;40618;51.166;10.322;2022-12-07T16:02:33;6.95;;;2.80;;
26864;SDS011;40618;51.166;10.322;2022-12-07T16:05:00;8.00;;;3.55;;
26864;SDS011;40618;51.166;10.322;2022-12-07T16:07:26;4.57;;;1.95;;
26864;SDS011;40618;51.166;10.322;2022-12-07T16:09:52;6.72;;;2.00;;
26864;SDS011;40618;51.166;10.322;2022-12-07T16:12:17;8.18;;;1.90;;
26864;SDS011;40618;51.166;10.322;2022-12-07T16:14:43;8.00;;;2.50;;
26864;SDS011;40618;51.166;10.322;2022-12-07T16:17:09;4.20;;;2.33;;
26864;SDS011;40618;51.166;10.322;2022-12-07T16:19:36;4.00;;;2.05;;
26864;SDS011;40618;51.166;10.322;2022-12-07T16:22:02;4.13;;;2.28;;
26864;SDS011;40618;51.166;10.322;2022-12-07T16:24:29;6.22;;;1.95;;
26864;SDS011;40618;51.166;10.322;2022-12-07T16:26:55;4.53;;;2.50;;
26864;SDS011;40618;51.166;10.322;2022-12-07T16:29:21;4.15;;;2.20;;
26864;SDS011;40618;51.166;10.322;2022-12-07T16:31:48;7.90;;;2.58;;
26864;SDS011;40618;51.166;10.322;2022-12-07T16:34:15;5.70;;;3.15;;
26864;SDS011;40618;51.166;10.322;2022-12-07T16:36:41;4.97;;;2.58;;
26864;SDS011;40618;51.166;10.322;2022-12-07T16:39:08;9.98;;;3.03;;
26864;SDS011;40618;51.166;10.322;2022-12-07T16:41:34;9.43;;;2.58;;
26864;SDS011;40618;51.166;10.322;2022-12-07T16:44:04;4.80;;;2.13;;
26864;SDS011;40618;51.166;10.322;2022-12-07T16:46:33;5.97;;;2.03;;
26864;SDS011;40618;51.166;10.322;2022-12-07T16:49:00;9.20;;;2.60;;
26864;SDS011;40618;51.166;10.322;2022-12-07T16:51:26;7.53;;;2.00;;
26864;SDS011;40618;51.166;10.322;2022-12-07T16:53:52;3.80;;;2.13;;
26864;SDS011;40618;51.166;10.322;2022-12-07T16:56:19;10.85;;;2.92;;
26864;SDS011;40618;51.166;10.322;2022-12-07T16:58:45;6.32;;;2.30;;
26864;SDS011;40618;51.166;10.322;2022-12-07T17:01:14;5.03;;;2.47;;
26864;SDS011;40618;51.166;10.322;2022-12-07T17:03:43;3.42;;;2.08;;
26864;SDS011;40618;51.166;10.322;2022-12-07T17:06:13;15.30;;;5.05;;
26864;SDS011;40618;51.166;10.322;2022-12-07T17:08:44;12.75;;;5.82;;
26864;SDS011;40618;51.166;10.322;2022-12-07T17:11:15;27.15;;;9.73;;
26864;SDS011;40618;51.166;10.322;2022-12-07T17:13:44;16.92;;;5.50;;
26864;SDS011;40618;51.166;10.322;2022-12-07T17:16:28;9.30;;;5.10;;
26864;SDS011;40618;51.166;10.322;2022-12-07T17:18:55;11.35;;;5.05;;
26864;SDS011;40618;51.166;10.322;2022-12-07T17:21:21;12.20;;;5.15;;
26864;SDS011;40618;51.166;10.322;2022-12-07T17:23:47;10.15;;;3.22;;
26864;SDS011;40618;51.166;10.322;2022-12-07T17:26:15;9.20;;;3.33;;
26864;SDS011;40618;51.166;10.322;2022-12-07T17:28:44;12.02;;;3.72;;
26864;SDS011;40618;51.166;10.322;2022-12-07T17:31:12;6.10;;;2.70;;
26864;SDS011;40618;51.166;10.322;2022-12-07T17:33:41;11.15;;;3.08;;
26864;SDS011;40618;51.166;10.322;2022-12-07T17:36:10;6.20;;;3.40;;
26864;SDS011;40618;51.166;10.322;2022-12-07T17:38:39;6.93;;;3.25;;
26864;SDS011;40618;51.166;10.322;2022-12-07T17:41:24;8.15;;;3.10;;
26864;SDS011;40618;51.166;10.322;2022-12-07T17:44:13;9.25;;;3.90;;
26864;SDS011;40618;51.166;10.322;2022-12-07T17:46:42;4.30;;;2.72;;
26864;SDS011;40618;51.166;10.322;2022-12-07T17:49:09;8.40;;;2.90;;
26864;SDS011;40618;51.166;10.322;2022-12-07T17:51:35;7.68;;;3.33;;
26864;SDS011;40618;51.166;10.322;2022-12-07T17:54:19;9.27;;;2.88;;
26864;SDS011;40618;51.166;10.322;2022-12-07T17:56:45;10.30;;;3.30;;
26864;SDS011;40618;51.166;10.322;2022-12-07T17:59:12;6.90;;;2.95;;
26864;SDS011;40618;51.166;10.322;2022-12-07T18:01:38;6.07;;;2.83;;
26864;SDS011;40618;51.166;10.322;2022-12-07T18:04:04;6.85;;;2.75;;
26864;SDS011;40618;51.166;10.322;2022-12-07T18:06:30;6.63;;;2.72;;